sensor_id;sensor_type;location;lat;lon;timestamp;P1;durP1;ratioP1;P2;durP2;ratioP2
7789;SDS011;3939;57.130;-2.086;2022-11-15T00:01:53;32.08;;;18.27;;
7789;SDS011;3939;57.130;-2.086;2022-11-15T00:04:19;34.22;;;18.50;;
7789;SDS011;3939;57.130;-2.086;2022-11-15T00:06:44;35.63;;;20.00;;
7789;SDS011;3939;57.130;-2.086;2022-11-15T00:09:10;38.42;;;20.23;;
7789;SDS011;3939;57.130;-2.086;2022-11-15T00:11:36;32.33;;;18.35;;
7789;SDS011;3939;57.130;-2.086;2022-11-15T00:14:02;38.10;;;19.23;;
7789;SDS011;3939;57.130;-2.086;2022-11-15T00:16:28;39.17;;;21.77;;
7789;SDS011;3939;57.130;-2.086;2022-11-15T00:18:53;37.08;;;19.50;;
7789;SDS011;3939;57.130;-2.086;2022-11-15T00:21:19;41.35;;;18.45;;
7789;SDS011;3939;57.130;-2.086;2022-11-15T00:23:45;35.63;;;20.42;;
7789;SDS011;3939;57.130;-2.086;2022-11-15T00:26:11;36.28;;;20.58;;
7789;SDS011;3939;57.130;-2.086;2022-11-15T00:28:39;41.72;;;21.25;;
7789;SDS011;3939;57.130;-2.086;2022-11-15T00:31:06;43.35;;;21.70;;
7789;SDS011;3939;57.130;-2.086;2022-11-15T00:33:34;39.53;;;22.83;;
7789;SDS011;3939;57.130;-2.086;2022-11-15T00:36:07;31.63;;;18.42;;
7789;SDS011;3939;57.130;-2.086;2022-11-15T00:38:34;43.65;;;20.80;;
7789;SDS011;3939;57.130;-2.086;2022-11-15T00:41:02;38.92;;;22.33;;
7789;SDS011;3939;57.130;-2.086;2022-11-15T00:43:29;40.40;;;21.70;;
7789;SDS011;3939;57.130;-2.086;2022-11-15T00:45:54;41.25;;;21.80;;
7789;SDS011;3939;57.130;-2.086;2022-11-15T00:48:20;47.72;;;24.17;;
7789;SDS011;3939;57.130;-2.086;2022-11-15T00:50:46;42.90;;;21.45;;
7789;SDS011;3939;57.130;-2.086;2022-11-15T00:53:12;42.10;;;22.58;;
7789;SDS011;3939;57.130;-2.086;2022-11-15T00:55:37;44.58;;;22.45;;
7789;SDS011;3939;57.130;-2.086;2022-11-15T00:58:03;38.92;;;18.42;;
7789;SDS011;3939;57.130;-2.086;2022-11-15T01:00:28;35.08;;;19.67;;
7789;SDS011;3939;57.130;-2.086;2022-11-15T01:02:54;38.47;;;21.60;;
7789;SDS011;3939;57.130;-2.086;2022-11-15T01:05:20;35.33;;;20.20;;
7789;SDS011;3939;57.130;-2.086;2022-11-15T01:07:46;33.67;;;17.83;;
7789;SDS011;3939;57.130;-2.086;2022-11-15T01:10:12;42.00;;;20.67;;
7789;SDS011;3939;57.130;-2.086;2022-11-15T01:12:37;35.75;;;19.48;;
7789;SDS011;3939;57.130;-2.086;2022-11-15T01:15:03;38.17;;;18.38;;
7789;SDS011;3939;57.130;-2.086;2022-11-15T01:17:30;35.35;;;17.65;;
7789;SDS011;3939;57.130;-2.086;2022-11-15T01:19:56;40.20;;;20.05;;
7789;SDS011;3939;57.130;-2.086;2022-11-15T01:22:22;46.42;;;20.63;;
7789;SDS011;3939;57.130;-2.086;2022-11-15T01:24:50;42.78;;;20.40;;
7789;SDS011;3939;57.130;-2.086;2022-11-15T01:27:16;37.30;;;21.00;;
7789;SDS011;3939;57.130;-2.086;2022-11-15T01:29:42;32.10;;;18.77;;
7789;SDS011;3939;57.130;-2.086;2022-11-15T01:32:07;32.42;;;17.73;;
7789;SDS011;3939;57.130;-2.086;2022-11-15T01:34:33;36.90;;;17.80;;
7789;SDS011;3939;57.130;-2.086;2022-11-15T01:36:59;38.25;;;17.10;;
7789;SDS011;3939;57.130;-2.086;2022-11-15T01:39:24;28.35;;;14.75;;
7789;SDS011;3939;57.130;-2.086;2022-11-15T01:41:51;30.65;;;16.02;;
7789;SDS011;3939;57.130;-2.086;2022-11-15T01:44:31;39.40;;;18.25;;
7789;SDS011;3939;57.130;-2.086;2022-11-15T01:47:02;45.33;;;20.05;;
7789;SDS011;3939;57.130;-2.086;2022-11-15T01:49:33;39.60;;;19.77;;
7789;SDS011;3939;57.130;-2.086;2022-11-15T01:52:02;40.13;;;21.20;;
7789;SDS011;3939;57.130;-2.086;2022-11-15T01:54:30;35.33;;;19.42;;
7789;SDS011;3939;57.130;-2.086;2022-11-15T01:56:58;48.22;;;22.15;;
7789;SDS011;3939;57.130;-2.086;2022-11-15T01:59:27;35.42;;;19.38;;
7789;SDS011;3939;57.130;-2.086;2022-11-15T02:01:53;41.47;;;20.55;;
7789;SDS011;3939;57.130;-2.086;2022-11-15T02:04:24;41.03;;;21.23;;
7789;SDS011;3939;57.130;-2.086;2022-11-15T02:06:55;35.33;;;18.55;;
7789;SDS011;3939;57.130;-2.086;2022-11-15T02:09:21;37.63;;;19.88;;
7789;SDS011;3939;57.130;-2.086;2022-11-15T02:11:47;39.13;;;19.75;;
7789;SDS011;3939;57.130;-2.086;2022-11-15T02:14:14;36.70;;;18.52;;
7789;SDS011;3939;57.130;-2.086;2022-11-15T02:19:39;33.72;;;19.45;;
7789;SDS011;3939;57.130;-2.086;2022-11-15T02:32:46;39.22;;;18.77;;
7789;SDS011;3939;57.130;-2.086;2022-11-15T02:41:31;36.05;;;16.27;;
7789;SDS011;3939;57.130;-2.086;2022-11-15T02:44:07;29.40;;;16.75;;
7789;SDS011;3939;57.130;-2.086;2022-11-15T02:46:50;29.67;;;16.33;;
7789;SDS011;3939;57.130;-2.086;2022-11-15T02:49:45;31.33;;;15.77;;
7789;SDS011;3939;57.130;-2.086;2022-11-15T02:52:16;31.95;;;15.75;;
7789;SDS011;3939;57.130;-2.086;2022-11-15T02:54:57;29.23;;;16.23;;
7789;SDS011;3939;57.130;-2.086;2022-11-15T02:57:39;31.48;;;15.82;;
7789;SDS011;3939;57.130;-2.086;2022-11-15T03:00:24;30.27;;;15.05;;
7789;SDS011;3939;57.130;-2.086;2022-11-15T03:08:50;29.38;;;14.27;;
7789;SDS011;3939;57.130;-2.086;2022-11-15T03:11:21;37.15;;;15.32;;
7789;SDS011;3939;57.130;-2.086;2022-11-15T03:16:40;31.75;;;15.65;;
7789;SDS011;3939;57.130;-2.086;2022-11-15T03:21:58;27.50;;;12.20;;
7789;SDS011;3939;57.130;-2.086;2022-11-15T03:24:27;39.40;;;15.57;;
7789;SDS011;3939;57.130;-2.086;2022-11-15T03:26:55;38.30;;;15.73;;
7789;SDS011;3939;57.130;-2.086;2022-11-15T03:29:26;37.70;;;16.13;;
7789;SDS011;3939;57.130;-2.086;2022-11-15T03:31:59;32.13;;;15.07;;
7789;SDS011;3939;57.130;-2.086;2022-11-15T03:37:02;41.28;;;16.77;;
7789;SDS011;3939;57.130;-2.086;2022-11-15T03:39:28;39.78;;;17.00;;
7789;SDS011;3939;57.130;-2.086;2022-11-15T03:42:03;35.17;;;16.08;;
7789;SDS011;3939;57.130;-2.086;2022-11-15T03:44:39;33.97;;;14.93;;
7789;SDS011;3939;57.130;-2.086;2022-11-15T03:47:17;39.63;;;16.42;;
7789;SDS011;3939;57.130;-2.086;2022-11-15T03:49:52;37.20;;;16.77;;
7789;SDS011;3939;57.130;-2.086;2022-11-15T03:52:23;40.10;;;17.17;;
7789;SDS011;3939;57.130;-2.086;2022-11-15T03:54:57;42.85;;;18.48;;
7789;SDS011;3939;57.130;-2.086;2022-11-15T03:57:26;44.20;;;19.50;;
7789;SDS011;3939;57.130;-2.086;2022-11-15T03:59:52;32.25;;;17.45;;
7789;SDS011;3939;57.130;-2.086;2022-11-15T04:02:18;35.63;;;18.90;;
7789;SDS011;3939;57.130;-2.086;2022-11-15T04:04:44;38.22;;;18.92;;
7789;SDS011;3939;57.130;-2.086;2022-11-15T04:07:09;37.30;;;20.60;;
7789;SDS011;3939;57.130;-2.086;2022-11-15T04:09:35;37.25;;;21.02;;
7789;SDS011;3939;57.130;-2.086;2022-11-15T04:12:24;36.00;;;19.17;;
7789;SDS011;3939;57.130;-2.086;2022-11-15T04:15:03;43.63;;;20.13;;
7789;SDS011;3939;57.130;-2.086;2022-11-15T04:20:30;45.63;;;23.40;;
7789;SDS011;3939;57.130;-2.086;2022-11-15T04:23:21;47.67;;;22.85;;
7789;SDS011;3939;57.130;-2.086;2022-11-15T04:26:13;30.98;;;17.05;;
7789;SDS011;3939;57.130;-2.086;2022-11-15T04:28:41;44.42;;;20.67;;
7789;SDS011;3939;57.130;-2.086;2022-11-15T04:31:26;48.28;;;22.85;;
7789;SDS011;3939;57.130;-2.086;2022-11-15T04:33:52;39.88;;;19.90;;
7789;SDS011;3939;57.130;-2.086;2022-11-15T04:36:18;50.53;;;21.73;;
7789;SDS011;3939;57.130;-2.086;2022-11-15T04:39:03;45.15;;;21.52;;
7789;SDS011;3939;57.130;-2.086;2022-11-15T04:41:29;47.13;;;22.00;;
7789;SDS011;3939;57.130;-2.086;2022-11-15T04:43:54;47.28;;;23.58;;
7789;SDS011;3939;57.130;-2.086;2022-11-15T04:46:21;48.63;;;25.30;;
7789;SDS011;3939;57.130;-2.086;2022-11-15T04:48:47;55.95;;;23.48;;
7789;SDS011;3939;57.130;-2.086;2022-11-15T04:51:13;46.28;;;20.88;;
7789;SDS011;3939;57.130;-2.086;2022-11-15T04:53:38;51.47;;;24.67;;
7789;SDS011;3939;57.130;-2.086;2022-11-15T04:56:04;36.40;;;21.92;;
7789;SDS011;3939;57.130;-2.086;2022-11-15T04:58:30;43.03;;;22.05;;
7789;SDS011;3939;57.130;-2.086;2022-11-15T05:00:55;45.10;;;24.02;;
7789;SDS011;3939;57.130;-2.086;2022-11-15T05:03:21;51.40;;;24.95;;
7789;SDS011;3939;57.130;-2.086;2022-11-15T05:06:05;48.00;;;23.65;;
7789;SDS011;3939;57.130;-2.086;2022-11-15T05:08:31;46.53;;;20.83;;
7789;SDS011;3939;57.130;-2.086;2022-11-15T05:10:57;47.30;;;21.42;;
7789;SDS011;3939;57.130;-2.086;2022-11-15T05:13:23;45.78;;;24.27;;
7789;SDS011;3939;57.130;-2.086;2022-11-15T05:15:48;39.65;;;20.17;;
7789;SDS011;3939;57.130;-2.086;2022-11-15T05:18:14;50.63;;;22.55;;
7789;SDS011;3939;57.130;-2.086;2022-11-15T05:20:40;57.45;;;23.55;;
7789;SDS011;3939;57.130;-2.086;2022-11-15T05:23:05;35.28;;;18.65;;
7789;SDS011;3939;57.130;-2.086;2022-11-15T05:25:31;41.60;;;21.30;;
7789;SDS011;3939;57.130;-2.086;2022-11-15T05:27:57;46.30;;;22.20;;
7789;SDS011;3939;57.130;-2.086;2022-11-15T05:30:22;45.15;;;24.38;;
7789;SDS011;3939;57.130;-2.086;2022-11-15T05:32:48;41.60;;;22.67;;
7789;SDS011;3939;57.130;-2.086;2022-11-15T05:35:34;51.97;;;23.20;;
7789;SDS011;3939;57.130;-2.086;2022-11-15T05:38:06;53.63;;;25.52;;
7789;SDS011;3939;57.130;-2.086;2022-11-15T05:40:32;44.50;;;22.92;;
7789;SDS011;3939;57.130;-2.086;2022-11-15T05:42:59;53.83;;;27.10;;
7789;SDS011;3939;57.130;-2.086;2022-11-15T05:45:26;55.67;;;25.33;;
7789;SDS011;3939;57.130;-2.086;2022-11-15T05:47:53;55.53;;;26.17;;
7789;SDS011;3939;57.130;-2.086;2022-11-15T05:50:22;50.63;;;27.30;;
7789;SDS011;3939;57.130;-2.086;2022-11-15T05:52:48;62.20;;;29.50;;
7789;SDS011;3939;57.130;-2.086;2022-11-15T05:55:14;56.72;;;30.23;;
7789;SDS011;3939;57.130;-2.086;2022-11-15T05:57:40;56.13;;;28.17;;
7789;SDS011;3939;57.130;-2.086;2022-11-15T06:00:06;44.95;;;25.67;;
7789;SDS011;3939;57.130;-2.086;2022-11-15T06:02:34;54.03;;;30.52;;
7789;SDS011;3939;57.130;-2.086;2022-11-15T06:04:59;50.10;;;28.20;;
7789;SDS011;3939;57.130;-2.086;2022-11-15T06:07:25;53.85;;;26.92;;
7789;SDS011;3939;57.130;-2.086;2022-11-15T06:09:51;51.33;;;29.48;;
7789;SDS011;3939;57.130;-2.086;2022-11-15T06:12:17;60.42;;;29.15;;
7789;SDS011;3939;57.130;-2.086;2022-11-15T06:14:45;47.83;;;27.88;;
7789;SDS011;3939;57.130;-2.086;2022-11-15T06:17:11;56.10;;;30.42;;
7789;SDS011;3939;57.130;-2.086;2022-11-15T06:19:36;58.28;;;31.00;;
7789;SDS011;3939;57.130;-2.086;2022-11-15T06:22:02;49.60;;;29.50;;
7789;SDS011;3939;57.130;-2.086;2022-11-15T06:24:28;48.78;;;28.45;;
7789;SDS011;3939;57.130;-2.086;2022-11-15T06:26:53;54.97;;;29.80;;
7789;SDS011;3939;57.130;-2.086;2022-11-15T06:29:19;46.72;;;28.30;;
7789;SDS011;3939;57.130;-2.086;2022-11-15T06:31:45;54.30;;;30.15;;
7789;SDS011;3939;57.130;-2.086;2022-11-15T06:34:11;48.83;;;27.45;;
7789;SDS011;3939;57.130;-2.086;2022-11-15T06:36:36;52.75;;;26.23;;
7789;SDS011;3939;57.130;-2.086;2022-11-15T06:39:03;51.88;;;26.70;;
7789;SDS011;3939;57.130;-2.086;2022-11-15T06:41:29;54.13;;;29.50;;
7789;SDS011;3939;57.130;-2.086;2022-11-15T06:43:56;51.33;;;25.60;;
7789;SDS011;3939;57.130;-2.086;2022-11-15T06:46:22;52.08;;;26.60;;
7789;SDS011;3939;57.130;-2.086;2022-11-15T06:48:49;52.75;;;27.92;;
7789;SDS011;3939;57.130;-2.086;2022-11-15T06:51:16;49.63;;;26.33;;
7789;SDS011;3939;57.130;-2.086;2022-11-15T06:53:41;43.70;;;23.13;;
7789;SDS011;3939;57.130;-2.086;2022-11-15T06:56:07;53.22;;;26.45;;
7789;SDS011;3939;57.130;-2.086;2022-11-15T06:58:34;51.45;;;27.38;;
7789;SDS011;3939;57.130;-2.086;2022-11-15T07:01:01;51.17;;;22.40;;
7789;SDS011;3939;57.130;-2.086;2022-11-15T07:03:31;50.45;;;23.40;;
7789;SDS011;3939;57.130;-2.086;2022-11-15T07:05:57;55.00;;;25.08;;
7789;SDS011;3939;57.130;-2.086;2022-11-15T07:08:23;44.03;;;21.52;;
7789;SDS011;3939;57.130;-2.086;2022-11-15T07:10:51;47.92;;;25.90;;
7789;SDS011;3939;57.130;-2.086;2022-11-15T07:13:17;48.20;;;21.55;;
7789;SDS011;3939;57.130;-2.086;2022-11-15T07:15:43;43.90;;;19.88;;
7789;SDS011;3939;57.130;-2.086;2022-11-15T07:18:08;38.88;;;22.27;;
7789;SDS011;3939;57.130;-2.086;2022-11-15T07:20:34;50.17;;;21.10;;
7789;SDS011;3939;57.130;-2.086;2022-11-15T07:23:00;45.17;;;21.20;;
7789;SDS011;3939;57.130;-2.086;2022-11-15T07:25:27;45.70;;;23.95;;
7789;SDS011;3939;57.130;-2.086;2022-11-15T07:27:54;42.58;;;18.95;;
7789;SDS011;3939;57.130;-2.086;2022-11-15T07:30:24;49.78;;;24.63;;
7789;SDS011;3939;57.130;-2.086;2022-11-15T07:33:08;46.90;;;22.25;;
7789;SDS011;3939;57.130;-2.086;2022-11-15T07:35:34;47.85;;;24.45;;
7789;SDS011;3939;57.130;-2.086;2022-11-15T07:38:00;51.97;;;24.88;;
7789;SDS011;3939;57.130;-2.086;2022-11-15T07:40:28;47.38;;;24.02;;
7789;SDS011;3939;57.130;-2.086;2022-11-15T07:42:59;58.53;;;25.13;;
7789;SDS011;3939;57.130;-2.086;2022-11-15T07:45:25;50.65;;;24.73;;
7789;SDS011;3939;57.130;-2.086;2022-11-15T07:47:51;50.10;;;23.30;;
7789;SDS011;3939;57.130;-2.086;2022-11-15T07:50:17;49.00;;;23.73;;
7789;SDS011;3939;57.130;-2.086;2022-11-15T07:52:43;47.00;;;22.95;;
7789;SDS011;3939;57.130;-2.086;2022-11-15T07:55:09;42.92;;;21.90;;
7789;SDS011;3939;57.130;-2.086;2022-11-15T07:57:36;56.03;;;23.40;;
7789;SDS011;3939;57.130;-2.086;2022-11-15T08:00:02;54.40;;;21.40;;
7789;SDS011;3939;57.130;-2.086;2022-11-15T08:02:31;53.13;;;24.48;;
7789;SDS011;3939;57.130;-2.086;2022-11-15T08:04:57;45.25;;;23.67;;
7789;SDS011;3939;57.130;-2.086;2022-11-15T08:07:24;57.10;;;22.67;;
7789;SDS011;3939;57.130;-2.086;2022-11-15T08:09:49;54.53;;;20.50;;
7789;SDS011;3939;57.130;-2.086;2022-11-15T08:12:15;34.70;;;18.45;;
7789;SDS011;3939;57.130;-2.086;2022-11-15T08:14:41;65.05;;;26.20;;
7789;SDS011;3939;57.130;-2.086;2022-11-15T08:17:06;52.25;;;25.42;;
7789;SDS011;3939;57.130;-2.086;2022-11-15T08:19:32;61.75;;;22.58;;
7789;SDS011;3939;57.130;-2.086;2022-11-15T08:21:58;60.25;;;25.05;;
7789;SDS011;3939;57.130;-2.086;2022-11-15T08:24:24;63.42;;;26.33;;
7789;SDS011;3939;57.130;-2.086;2022-11-15T08:26:50;52.33;;;22.33;;
7789;SDS011;3939;57.130;-2.086;2022-11-15T08:29:15;58.00;;;26.33;;
7789;SDS011;3939;57.130;-2.086;2022-11-15T08:31:41;62.35;;;24.70;;
7789;SDS011;3939;57.130;-2.086;2022-11-15T08:34:07;49.58;;;24.25;;
7789;SDS011;3939;57.130;-2.086;2022-11-15T08:36:33;43.88;;;23.50;;
7789;SDS011;3939;57.130;-2.086;2022-11-15T08:38:58;48.70;;;22.63;;
7789;SDS011;3939;57.130;-2.086;2022-11-15T08:41:25;64.13;;;28.30;;
7789;SDS011;3939;57.130;-2.086;2022-11-15T08:43:55;47.45;;;19.60;;
7789;SDS011;3939;57.130;-2.086;2022-11-15T08:46:20;53.33;;;24.75;;
7789;SDS011;3939;57.130;-2.086;2022-11-15T08:48:46;63.28;;;27.15;;
7789;SDS011;3939;57.130;-2.086;2022-11-15T08:51:12;51.05;;;23.33;;
7789;SDS011;3939;57.130;-2.086;2022-11-15T08:53:37;56.85;;;28.40;;
7789;SDS011;3939;57.130;-2.086;2022-11-15T08:58:52;58.92;;;25.27;;
7789;SDS011;3939;57.130;-2.086;2022-11-15T09:01:20;48.40;;;22.48;;
7789;SDS011;3939;57.130;-2.086;2022-11-15T09:03:47;57.53;;;26.52;;
7789;SDS011;3939;57.130;-2.086;2022-11-15T09:06:13;55.47;;;26.40;;
7789;SDS011;3939;57.130;-2.086;2022-11-15T09:08:38;50.47;;;22.70;;
7789;SDS011;3939;57.130;-2.086;2022-11-15T09:11:05;50.08;;;25.42;;
7789;SDS011;3939;57.130;-2.086;2022-11-15T09:13:32;51.90;;;22.55;;
7789;SDS011;3939;57.130;-2.086;2022-11-15T09:15:59;44.78;;;22.65;;
7789;SDS011;3939;57.130;-2.086;2022-11-15T09:18:25;54.08;;;21.20;;
7789;SDS011;3939;57.130;-2.086;2022-11-15T09:20:54;56.45;;;26.23;;
7789;SDS011;3939;57.130;-2.086;2022-11-15T09:23:21;48.60;;;22.63;;
7789;SDS011;3939;57.130;-2.086;2022-11-15T09:25:47;49.92;;;23.02;;
7789;SDS011;3939;57.130;-2.086;2022-11-15T09:28:13;52.22;;;24.75;;
7789;SDS011;3939;57.130;-2.086;2022-11-15T09:30:38;45.15;;;22.42;;
7789;SDS011;3939;57.130;-2.086;2022-11-15T09:33:10;43.25;;;19.48;;
7789;SDS011;3939;57.130;-2.086;2022-11-15T09:35:37;41.92;;;22.05;;
7789;SDS011;3939;57.130;-2.086;2022-11-15T09:38:03;42.95;;;20.45;;
7789;SDS011;3939;57.130;-2.086;2022-11-15T09:40:29;51.15;;;25.83;;
7789;SDS011;3939;57.130;-2.086;2022-11-15T09:50:57;43.45;;;19.15;;
7789;SDS011;3939;57.130;-2.086;2022-11-15T09:53:41;53.70;;;24.05;;
7789;SDS011;3939;57.130;-2.086;2022-11-15T09:56:15;39.70;;;22.50;;
7789;SDS011;3939;57.130;-2.086;2022-11-15T10:01:14;54.78;;;23.20;;
7789;SDS011;3939;57.130;-2.086;2022-11-15T10:04:01;34.33;;;18.55;;
7789;SDS011;3939;57.130;-2.086;2022-11-15T10:06:26;49.38;;;23.83;;
7789;SDS011;3939;57.130;-2.086;2022-11-15T10:11:28;41.85;;;24.30;;
7789;SDS011;3939;57.130;-2.086;2022-11-15T10:13:59;50.83;;;23.55;;
7789;SDS011;3939;57.130;-2.086;2022-11-15T10:22:39;44.25;;;22.65;;
7789;SDS011;3939;57.130;-2.086;2022-11-15T10:25:26;56.47;;;25.23;;
7789;SDS011;3939;57.130;-2.086;2022-11-15T10:28:05;49.10;;;24.00;;
7789;SDS011;3939;57.130;-2.086;2022-11-15T10:31:01;56.08;;;22.48;;
7789;SDS011;3939;57.130;-2.086;2022-11-15T10:33:33;48.92;;;22.80;;
7789;SDS011;3939;57.130;-2.086;2022-11-15T10:41:15;55.40;;;25.25;;
7789;SDS011;3939;57.130;-2.086;2022-11-15T10:43:42;61.22;;;27.17;;
7789;SDS011;3939;57.130;-2.086;2022-11-15T10:46:22;55.65;;;23.50;;
7789;SDS011;3939;57.130;-2.086;2022-11-15T10:49:01;56.60;;;23.15;;
7789;SDS011;3939;57.130;-2.086;2022-11-15T10:51:42;56.90;;;25.20;;
7789;SDS011;3939;57.130;-2.086;2022-11-15T10:54:10;44.92;;;20.08;;
7789;SDS011;3939;57.130;-2.086;2022-11-15T10:56:38;48.22;;;23.70;;
7789;SDS011;3939;57.130;-2.086;2022-11-15T10:59:12;54.22;;;26.25;;
7789;SDS011;3939;57.130;-2.086;2022-11-15T11:01:46;44.13;;;21.35;;
7789;SDS011;3939;57.130;-2.086;2022-11-15T11:04:12;55.53;;;21.48;;
7789;SDS011;3939;57.130;-2.086;2022-11-15T11:06:51;62.65;;;25.77;;
7789;SDS011;3939;57.130;-2.086;2022-11-15T11:11:59;60.45;;;24.02;;
7789;SDS011;3939;57.130;-2.086;2022-11-15T11:14:29;62.80;;;24.50;;
7789;SDS011;3939;57.130;-2.086;2022-11-15T11:27:33;53.88;;;20.27;;
7789;SDS011;3939;57.130;-2.086;2022-11-15T11:33:18;48.08;;;17.98;;
7789;SDS011;3939;57.130;-2.086;2022-11-15T11:43:41;35.65;;;12.07;;
7789;SDS011;3939;57.130;-2.086;2022-11-15T11:49:25;29.60;;;7.15;;
7789;SDS011;3939;57.130;-2.086;2022-11-15T11:54:50;27.05;;;6.43;;
7789;SDS011;3939;57.130;-2.086;2022-11-15T12:00:18;20.83;;;3.95;;
7789;SDS011;3939;57.130;-2.086;2022-11-15T12:05:40;18.92;;;3.83;;
7789;SDS011;3939;57.130;-2.086;2022-11-15T12:08:20;24.45;;;4.43;;
7789;SDS011;3939;57.130;-2.086;2022-11-15T12:13:53;25.83;;;5.97;;
7789;SDS011;3939;57.130;-2.086;2022-11-15T12:16:29;21.15;;;5.05;;
7789;SDS011;3939;57.130;-2.086;2022-11-15T12:19:01;21.88;;;6.00;;
7789;SDS011;3939;57.130;-2.086;2022-11-15T12:21:33;21.98;;;5.72;;
7789;SDS011;3939;57.130;-2.086;2022-11-15T12:26:50;20.67;;;4.43;;
7789;SDS011;3939;57.130;-2.086;2022-11-15T12:31:54;21.40;;;5.28;;
7789;SDS011;3939;57.130;-2.086;2022-11-15T12:36:48;20.95;;;5.47;;
7789;SDS011;3939;57.130;-2.086;2022-11-15T12:39:15;18.65;;;4.70;;
7789;SDS011;3939;57.130;-2.086;2022-11-15T12:41:42;13.25;;;3.95;;
7789;SDS011;3939;57.130;-2.086;2022-11-15T13:02:42;23.77;;;4.72;;
7789;SDS011;3939;57.130;-2.086;2022-11-15T13:17:49;25.73;;;5.45;;
7789;SDS011;3939;57.130;-2.086;2022-11-15T13:20:23;20.75;;;5.43;;
7789;SDS011;3939;57.130;-2.086;2022-11-15T13:22:51;19.38;;;5.75;;
7789;SDS011;3939;57.130;-2.086;2022-11-15T13:27:58;16.05;;;4.75;;
7789;SDS011;3939;57.130;-2.086;2022-11-15T13:30:29;22.05;;;4.82;;
7789;SDS011;3939;57.130;-2.086;2022-11-15T13:32:56;23.48;;;5.13;;
7789;SDS011;3939;57.130;-2.086;2022-11-15T13:35:31;20.02;;;4.75;;
7789;SDS011;3939;57.130;-2.086;2022-11-15T13:38:03;22.45;;;5.47;;
7789;SDS011;3939;57.130;-2.086;2022-11-15T13:40:34;23.08;;;4.53;;
7789;SDS011;3939;57.130;-2.086;2022-11-15T13:48:35;27.50;;;6.93;;
7789;SDS011;3939;57.130;-2.086;2022-11-15T13:51:06;20.08;;;6.20;;
7789;SDS011;3939;57.130;-2.086;2022-11-15T13:53:35;29.67;;;7.03;;
7789;SDS011;3939;57.130;-2.086;2022-11-15T13:56:05;23.08;;;5.10;;
7789;SDS011;3939;57.130;-2.086;2022-11-15T13:58:31;32.80;;;6.35;;
7789;SDS011;3939;57.130;-2.086;2022-11-15T14:01:02;35.08;;;5.97;;
7789;SDS011;3939;57.130;-2.086;2022-11-15T14:03:31;35.75;;;6.97;;
7789;SDS011;3939;57.130;-2.086;2022-11-15T14:11:35;25.70;;;5.05;;
7789;SDS011;3939;57.130;-2.086;2022-11-15T14:16:37;29.00;;;5.43;;
7789;SDS011;3939;57.130;-2.086;2022-11-15T14:19:55;26.48;;;6.50;;
7789;SDS011;3939;57.130;-2.086;2022-11-15T14:24:41;26.52;;;5.65;;
7789;SDS011;3939;57.130;-2.086;2022-11-15T14:27:23;24.50;;;4.93;;
7789;SDS011;3939;57.130;-2.086;2022-11-15T14:29:51;33.28;;;6.93;;
7789;SDS011;3939;57.130;-2.086;2022-11-15T14:32:24;23.25;;;5.15;;
7789;SDS011;3939;57.130;-2.086;2022-11-15T14:35:00;26.05;;;4.50;;
7789;SDS011;3939;57.130;-2.086;2022-11-15T14:37:31;28.30;;;6.13;;
7789;SDS011;3939;57.130;-2.086;2022-11-15T14:40:00;29.02;;;4.55;;
7789;SDS011;3939;57.130;-2.086;2022-11-15T14:42:27;28.77;;;5.03;;
7789;SDS011;3939;57.130;-2.086;2022-11-15T14:44:53;30.75;;;5.72;;
7789;SDS011;3939;57.130;-2.086;2022-11-15T14:47:19;29.70;;;5.88;;
7789;SDS011;3939;57.130;-2.086;2022-11-15T14:49:48;34.10;;;5.45;;
7789;SDS011;3939;57.130;-2.086;2022-11-15T14:54:53;24.25;;;5.28;;
7789;SDS011;3939;57.130;-2.086;2022-11-15T14:57:19;34.67;;;5.78;;
7789;SDS011;3939;57.130;-2.086;2022-11-15T14:59:45;24.75;;;4.35;;
7789;SDS011;3939;57.130;-2.086;2022-11-15T15:02:16;30.08;;;5.15;;
7789;SDS011;3939;57.130;-2.086;2022-11-15T15:04:48;39.38;;;5.97;;
7789;SDS011;3939;57.130;-2.086;2022-11-15T15:07:14;36.83;;;6.38;;
7789;SDS011;3939;57.130;-2.086;2022-11-15T15:09:40;28.98;;;5.25;;
7789;SDS011;3939;57.130;-2.086;2022-11-15T15:12:25;29.30;;;5.07;;
7789;SDS011;3939;57.130;-2.086;2022-11-15T15:14:50;35.53;;;5.45;;
7789;SDS011;3939;57.130;-2.086;2022-11-15T15:17:16;33.58;;;5.57;;
7789;SDS011;3939;57.130;-2.086;2022-11-15T15:19:42;40.00;;;5.88;;
7789;SDS011;3939;57.130;-2.086;2022-11-15T15:22:13;37.38;;;5.47;;
7789;SDS011;3939;57.130;-2.086;2022-11-15T15:24:43;31.48;;;5.53;;
7789;SDS011;3939;57.130;-2.086;2022-11-15T15:27:10;26.42;;;5.03;;
7789;SDS011;3939;57.130;-2.086;2022-11-15T15:29:36;43.08;;;7.43;;
7789;SDS011;3939;57.130;-2.086;2022-11-15T15:32:02;25.15;;;4.38;;
7789;SDS011;3939;57.130;-2.086;2022-11-15T15:34:28;31.65;;;6.05;;
7789;SDS011;3939;57.130;-2.086;2022-11-15T15:37:07;23.88;;;3.95;;
7789;SDS011;3939;57.130;-2.086;2022-11-15T15:39:51;43.92;;;6.28;;
7789;SDS011;3939;57.130;-2.086;2022-11-15T15:42:21;44.95;;;6.25;;
7789;SDS011;3939;57.130;-2.086;2022-11-15T15:44:48;48.67;;;6.35;;
7789;SDS011;3939;57.130;-2.086;2022-11-15T15:47:18;32.47;;;5.10;;
7789;SDS011;3939;57.130;-2.086;2022-11-15T15:49:48;32.45;;;5.78;;
7789;SDS011;3939;57.130;-2.086;2022-11-15T15:52:15;60.60;;;8.02;;
7789;SDS011;3939;57.130;-2.086;2022-11-15T15:54:41;46.50;;;5.88;;
7789;SDS011;3939;57.130;-2.086;2022-11-15T15:57:07;36.47;;;7.63;;
7789;SDS011;3939;57.130;-2.086;2022-11-15T15:59:35;50.00;;;6.53;;
7789;SDS011;3939;57.130;-2.086;2022-11-15T16:02:01;38.45;;;6.93;;
7789;SDS011;3939;57.130;-2.086;2022-11-15T16:04:29;35.65;;;5.95;;
7789;SDS011;3939;57.130;-2.086;2022-11-15T16:06:59;37.08;;;6.30;;
7789;SDS011;3939;57.130;-2.086;2022-11-15T16:09:25;55.50;;;8.07;;
7789;SDS011;3939;57.130;-2.086;2022-11-15T16:12:10;37.03;;;5.15;;
7789;SDS011;3939;57.130;-2.086;2022-11-15T16:14:36;57.67;;;6.97;;
7789;SDS011;3939;57.130;-2.086;2022-11-15T16:17:02;50.42;;;7.28;;
7789;SDS011;3939;57.130;-2.086;2022-11-15T16:19:28;46.22;;;6.93;;
7789;SDS011;3939;57.130;-2.086;2022-11-15T16:21:54;54.42;;;7.85;;
7789;SDS011;3939;57.130;-2.086;2022-11-15T16:24:20;50.65;;;7.45;;
7789;SDS011;3939;57.130;-2.086;2022-11-15T16:26:46;36.95;;;5.60;;
7789;SDS011;3939;57.130;-2.086;2022-11-15T16:29:18;41.83;;;6.00;;
7789;SDS011;3939;57.130;-2.086;2022-11-15T16:31:44;51.50;;;6.60;;
7789;SDS011;3939;57.130;-2.086;2022-11-15T16:34:10;55.53;;;7.55;;
7789;SDS011;3939;57.130;-2.086;2022-11-15T16:36:35;51.85;;;8.32;;
7789;SDS011;3939;57.130;-2.086;2022-11-15T16:39:01;49.78;;;9.40;;
7789;SDS011;3939;57.130;-2.086;2022-11-15T16:41:31;36.13;;;6.22;;
7789;SDS011;3939;57.130;-2.086;2022-11-15T16:43:57;53.25;;;6.88;;
7789;SDS011;3939;57.130;-2.086;2022-11-15T16:46:24;24.52;;;4.45;;
7789;SDS011;3939;57.130;-2.086;2022-11-15T16:48:51;46.05;;;6.65;;
7789;SDS011;3939;57.130;-2.086;2022-11-15T16:51:18;39.35;;;6.95;;
7789;SDS011;3939;57.130;-2.086;2022-11-15T16:53:44;41.97;;;6.47;;
7789;SDS011;3939;57.130;-2.086;2022-11-15T16:56:17;52.30;;;6.55;;
7789;SDS011;3939;57.130;-2.086;2022-11-15T16:58:46;38.17;;;6.47;;
7789;SDS011;3939;57.130;-2.086;2022-11-15T17:01:16;36.60;;;5.20;;
7789;SDS011;3939;57.130;-2.086;2022-11-15T17:03:44;49.38;;;5.68;;
7789;SDS011;3939;57.130;-2.086;2022-11-15T17:06:10;33.80;;;5.38;;
7789;SDS011;3939;57.130;-2.086;2022-11-15T17:08:37;39.88;;;6.15;;
7789;SDS011;3939;57.130;-2.086;2022-11-15T17:11:06;50.30;;;7.60;;
7789;SDS011;3939;57.130;-2.086;2022-11-15T17:13:32;53.95;;;7.60;;
7789;SDS011;3939;57.130;-2.086;2022-11-15T17:16:05;52.28;;;7.53;;
7789;SDS011;3939;57.130;-2.086;2022-11-15T17:18:35;65.88;;;9.02;;
7789;SDS011;3939;57.130;-2.086;2022-11-15T17:21:20;63.00;;;8.77;;
7789;SDS011;3939;57.130;-2.086;2022-11-15T17:23:49;57.67;;;8.38;;
7789;SDS011;3939;57.130;-2.086;2022-11-15T17:26:15;55.17;;;6.50;;
7789;SDS011;3939;57.130;-2.086;2022-11-15T17:28:52;42.00;;;6.88;;
7789;SDS011;3939;57.130;-2.086;2022-11-15T17:31:19;47.05;;;7.07;;
7789;SDS011;3939;57.130;-2.086;2022-11-15T17:33:44;42.25;;;6.38;;